Time;durP1;ratioP1;P1;durP2;ratioP2;P2;SDS_P1;SDS_P2;PMS_P1;PMS_P2;Temp;Humidity;BMP_temperature;BMP_pressure;BME280_temperature;BME280_humidity;BME280_pressure;Samples;Min_cycle;Max_cycle;Signal;HPM_P1;HPM_P2
2022/11/10 00:02:02;;;;;;;13.50;3.90;;;9.00;99.90;;;;;;4991043;28;20404;-81
2022/11/10 00:04:27;;;;;;;12.20;3.83;;;9.00;99.90;;;;;;4990009;28;20049;-80
2022/11/10 00:06:53;;;;;;;13.52;3.75;;;9.00;99.90;;;;;;4989443;28;20038;-80
2022/11/10 00:09:19;;;;;;;16.40;4.22;;;9.00;99.90;;;;;;4991294;28;20125;-80
2022/11/10 00:11:45;;;;;;;13.77;4.45;;;8.90;99.90;;;;;;4989399;28;20366;-80
2022/11/10 00:17:00;;;;;;;13.25;3.50;;;8.90;99.90;;;;;;4989789;28;20446;-81
2022/11/10 00:19:27;;;;;;;11.93;4.00;;;8.80;99.90;;;;;;4988269;28;20054;-81
2022/11/10 00:21:53;;;;;;;13.73;4.60;;;8.90;99.90;;;;;;4973083;28;20112;-81
2022/11/10 00:24:19;;;;;;;13.80;4.13;;;8.80;99.90;;;;;;4989789;28;20493;-80
2022/11/10 00:26:45;;;;;;;10.18;4.10;;;8.80;99.90;;;;;;4987174;28;20449;-81
2022/11/10 00:29:10;;;;;;;11.95;3.90;;;8.80;99.90;;;;;;4989001;28;20050;-81
2022/11/10 00:31:40;;;;;;;12.77;4.40;;;8.80;99.90;;;;;;4989420;28;20088;-80
2022/11/10 00:34:07;;;;;;;11.02;4.20;;;8.80;99.90;;;;;;4987933;28;20046;-80
2022/11/10 00:36:34;;;;;;;12.95;4.15;;;8.70;99.90;;;;;;4990785;28;20069;-80
2022/11/10 00:38:59;;;;;;;15.73;4.85;;;8.70;99.90;;;;;;4989793;28;20089;-81
2022/11/10 00:41:25;;;;;;;14.13;5.28;;;8.70;99.90;;;;;;4972284;28;20085;-81
2022/11/10 00:43:50;;;;;;;15.80;4.38;;;8.70;99.90;;;;;;4989605;28;20062;-81
2022/11/10 00:46:16;;;;;;;10.57;4.10;;;8.70;99.90;;;;;;4990373;28;20420;-80
2022/11/10 00:48:42;;;;;;;15.48;4.75;;;8.70;99.90;;;;;;4982614;28;20042;-81
2022/11/10 00:51:18;;;;;;;14.18;4.55;;;8.60;99.90;;;;;;4980608;28;20489;-81
2022/11/10 00:53:43;;;;;;;13.25;4.20;;;8.70;99.90;;;;;;4981485;28;20086;-81
2022/11/10 00:56:09;;;;;;;18.98;5.05;;;8.60;99.90;;;;;;4989686;28;20157;-81
2022/11/10 00:58:34;;;;;;;17.25;4.60;;;8.60;99.90;;;;;;4988996;28;20050;-80
2022/11/10 01:01:02;;;;;;;11.05;4.40;;;8.60;99.90;;;;;;4988464;28;20054;-80
2022/11/10 01:03:27;;;;;;;11.57;4.95;;;8.60;99.90;;;;;;4988386;28;20496;-81
2022/11/10 01:05:53;;;;;;;17.33;5.10;;;8.60;99.90;;;;;;4971087;28;20045;-81
2022/11/10 01:08:18;;;;;;;11.73;4.00;;;8.60;99.90;;;;;;4988447;28;20046;-81
2022/11/10 01:10:44;;;;;;;13.68;4.57;;;8.60;99.90;;;;;;4989543;28;20130;-81
2022/11/10 01:13:09;;;;;;;12.50;4.78;;;8.50;99.90;;;;;;4977491;28;20069;-81
2022/11/10 01:15:39;;;;;;;11.23;4.78;;;8.50;99.90;;;;;;4970024;28;20050;-81
2022/11/10 01:18:04;;;;;;;18.17;4.65;;;8.50;99.90;;;;;;4969217;28;20178;-81
2022/11/10 01:20:32;;;;;;;18.13;5.38;;;8.50;99.90;;;;;;4970732;28;20501;-81
2022/11/10 01:22:57;;;;;;;24.02;5.50;;;8.40;99.90;;;;;;4968877;28;20050;-80
2022/11/10 01:25:23;;;;;;;18.75;5.00;;;8.40;99.90;;;;;;4984947;28;20181;-80
2022/11/10 01:27:49;;;;;;;11.77;4.80;;;8.40;99.90;;;;;;4977089;28;20048;-80
2022/11/10 01:30:15;;;;;;;16.25;5.32;;;8.40;99.90;;;;;;4969932;28;20043;-81
2022/11/10 01:32:41;;;;;;;12.70;5.63;;;8.40;99.90;;;;;;4970252;28;20105;-80
2022/11/10 01:35:07;;;;;;;17.58;5.93;;;8.40;99.90;;;;;;4968609;28;20053;-81
2022/11/10 01:37:32;;;;;;;17.98;6.10;;;8.40;99.90;;;;;;4970529;28;20035;-81
2022/11/10 01:39:58;;;;;;;17.00;5.65;;;8.40;99.90;;;;;;4968585;28;20054;-80
2022/11/10 01:42:26;;;;;;;20.27;5.63;;;8.40;99.90;;;;;;4968262;28;20071;-81
2022/11/10 01:45:23;;;;;;;20.05;6.90;;;8.30;99.90;;;;;;4981930;28;20035;-80
2022/11/10 01:47:52;;;;;;;15.20;5.50;;;8.30;99.90;;;;;;4986915;28;20057;-81
2022/11/10 01:50:20;;;;;;;16.92;5.60;;;8.30;99.90;;;;;;4988980;28;20087;-81
2022/11/10 01:52:49;;;;;;;22.00;5.50;;;8.30;99.90;;;;;;4987764;28;20050;-81
2022/11/10 01:55:16;;;;;;;13.60;5.55;;;8.30;99.90;;;;;;4987169;28;20046;-81
2022/11/10 01:57:42;;;;;;;18.55;5.82;;;8.30;99.90;;;;;;4986160;28;20051;-81
2022/11/10 02:00:08;;;;;;;18.35;6.00;;;8.30;99.90;;;;;;4970812;28;20413;-80
2022/11/10 02:02:41;;;;;;;14.43;5.32;;;8.30;99.90;;;;;;4986154;28;20050;-80
2022/11/10 02:05:07;;;;;;;17.75;5.22;;;8.30;99.90;;;;;;4987297;28;20050;-80
2022/11/10 02:07:33;;;;;;;12.93;5.35;;;8.30;99.90;;;;;;4986104;28;20085;-80
2022/11/10 02:10:01;;;;;;;13.90;6.35;;;8.30;99.90;;;;;;4986523;28;20076;-80
2022/11/10 02:12:38;;;;;;;16.13;6.05;;;8.30;99.90;;;;;;4972625;28;20060;-80
2022/11/10 02:15:05;;;;;;;14.82;5.38;;;8.30;99.90;;;;;;4985954;28;20051;-80
2022/11/10 02:17:31;;;;;;;15.75;5.50;;;8.30;99.90;;;;;;4970355;28;20050;-80
2022/11/10 02:20:03;;;;;;;16.17;5.63;;;8.30;99.90;;;;;;4985394;28;20405;-80
2022/11/10 02:22:29;;;;;;;;;;;8.30;99.90;;;;;;4987008;28;20451;-80
2022/11/10 02:24:55;;;;;;;19.13;5.53;;;8.30;99.90;;;;;;4987891;28;20475;-80
2022/11/10 02:27:21;;;;;;;14.50;5.70;;;8.30;99.90;;;;;;4982345;28;20046;-80
2022/11/10 02:29:47;;;;;;;15.10;5.47;;;8.30;99.90;;;;;;4987590;28;20100;-80
2022/11/10 02:32:12;;;;;;;14.40;5.60;;;8.40;99.90;;;;;;4987396;28;20050;-80
2022/11/10 02:34:38;;;;;;;14.10;5.03;;;8.40;99.90;;;;;;4987536;28;20053;-80
2022/11/10 02:37:03;;;;;;;15.30;5.75;;;8.40;99.90;;;;;;4987085;28;20050;-80
2022/11/10 02:39:29;;;;;;;16.13;6.30;;;8.40;99.90;;;;;;4988245;28;20038;-80
2022/11/10 02:41:54;;;;;;;14.40;5.32;;;8.40;99.90;;;;;;4988278;28;20174;-80
2022/11/10 02:44:20;;;;;;;18.42;5.30;;;8.50;99.90;;;;;;4991657;28;20042;-80
2022/11/10 02:46:46;;;;;;;18.95;5.88;;;8.50;99.90;;;;;;4989785;28;20038;-80
2022/11/10 02:49:12;;;;;;;19.70;5.50;;;8.50;99.90;;;;;;4971440;28;20149;-80
2022/11/10 02:51:38;;;;;;;15.20;5.55;;;8.50;99.90;;;;;;4974329;28;20058;-80
2022/11/10 02:54:05;;;;;;;16.48;5.50;;;8.60;99.90;;;;;;4991057;28;20117;-80
2022/11/10 02:56:30;;;;;;;11.52;5.13;;;8.60;99.90;;;;;;4990814;28;20527;-80
2022/11/10 02:58:56;;;;;;;16.38;5.60;;;8.50;99.90;;;;;;4991201;28;20046;-80
2022/11/10 03:01:22;;;;;;;18.20;5.43;;;8.60;99.90;;;;;;4990942;28;20046;-80
2022/11/10 03:03:47;;;;;;;19.73;5.93;;;8.60;99.90;;;;;;4990827;28;20049;-80
2022/11/10 03:06:13;;;;;;;15.43;5.28;;;8.60;99.90;;;;;;4990792;28;20052;-80
2022/11/10 03:08:39;;;;;;;17.80;6.70;;;8.60;99.90;;;;;;4992349;28;20082;-80
2022/11/10 03:11:04;;;;;;;19.67;6.10;;;8.60;99.90;;;;;;4991285;28;20069;-81
2022/11/10 03:13:31;;;;;;;24.42;6.55;;;8.70;99.90;;;;;;4990776;28;20088;-81
2022/11/10 03:15:56;;;;;;;18.30;7.15;;;8.60;99.90;;;;;;4990466;28;20042;-81
2022/11/10 03:18:22;;;;;;;14.98;6.30;;;8.70;99.90;;;;;;4988285;28;20378;-80
2022/11/10 03:20:49;;;;;;;22.85;6.63;;;8.70;99.90;;;;;;4990025;28;20133;-80
2022/11/10 03:23:16;;;;;;;21.20;7.63;;;8.70;99.90;;;;;;4990919;28;20386;-80
2022/11/10 03:25:42;;;;;;;16.23;6.70;;;8.70;99.90;;;;;;4989848;28;20049;-80
2022/11/10 03:28:08;;;;;;;18.75;7.28;;;8.70;99.90;;;;;;4990196;28;20042;-80
2022/11/10 03:30:33;;;;;;;17.15;7.10;;;8.80;99.90;;;;;;4988751;28;20089;-81
2022/11/10 03:32:59;;;;;;;20.92;7.15;;;8.80;99.90;;;;;;4986112;28;20035;-80
2022/11/10 03:35:25;;;;;;;22.67;8.00;;;8.70;99.90;;;;;;4976391;28;20130;-80
2022/11/10 03:37:50;;;;;;;22.67;7.15;;;8.70;99.90;;;;;;4989938;28;20089;-80
2022/11/10 03:40:16;;;;;;;19.35;7.82;;;8.80;99.90;;;;;;4991228;28;20050;-81
2022/11/10 03:42:45;;;;;;;17.67;7.57;;;8.70;99.90;;;;;;4990035;28;20539;-80
2022/11/10 03:45:12;;;;;;;21.40;8.77;;;8.70;99.90;;;;;;4989691;28;20145;-80
2022/11/10 03:47:38;;;;;;;21.38;8.07;;;8.70;99.90;;;;;;4988915;28;20046;-80
2022/11/10 03:50:05;;;;;;;20.85;8.55;;;8.70;99.90;;;;;;4972135;28;20129;-80
2022/11/10 03:52:31;;;;;;;22.08;9.15;;;8.70;99.90;;;;;;4987137;28;20042;-80
2022/11/10 03:54:57;;;;;;;22.50;9.05;;;8.70;99.90;;;;;;4971256;28;20069;-81
2022/11/10 03:57:23;;;;;;;25.13;9.15;;;8.70;99.90;;;;;;4988353;28;20487;-80
2022/11/10 03:59:48;;;;;;;24.60;10.15;;;8.70;99.90;;;;;;4988827;28;20050;-80
2022/11/10 04:02:14;;;;;;;25.05;9.30;;;9.30;99.90;;;;;;4988737;28;20100;-80
2022/11/10 04:10:08;;;;;;;25.77;10.43;;;8.70;99.90;;;;;;4986658;28;20508;-80
2022/11/10 04:18:20;;;;;;;27.15;10.23;;;8.70;99.90;;;;;;4988473;28;20050;-79
2022/11/10 04:20:47;;;;;;;22.60;9.85;;;8.70;99.90;;;;;;4989521;28;20811;-80
2022/11/10 04:23:25;;;;;;;24.30;10.07;;;8.80;99.90;;;;;;4984174;28;20065;-80
2022/11/10 04:28:48;;;;;;;21.80;9.93;;;8.80;99.90;;;;;;4990037;28;20081;-80
2022/11/10 04:31:16;;;;;;;30.38;11.15;;;8.90;99.90;;;;;;4989873;28;20056;-80
2022/11/10 04:33:42;;;;;;;22.20;9.63;;;8.90;99.90;;;;;;4989741;28;20042;-81
2022/11/10 04:36:10;;;;;;;24.48;9.52;;;8.90;99.90;;;;;;4989069;28;20050;-81
2022/11/10 04:38:36;;;;;;;27.77;10.57;;;8.80;99.90;;;;;;4984747;28;20046;-81
2022/11/10 04:41:02;;;;;;;28.08;10.38;;;8.80;99.90;;;;;;4982714;28;20058;-80
2022/11/10 04:43:28;;;;;;;25.58;9.57;;;8.80;99.90;;;;;;4972100;28;20559;-81
2022/11/10 04:45:54;;;;;;;26.05;9.88;;;8.80;99.90;;;;;;4973340;28;20060;-80
2022/11/10 04:48:20;;;;;;;26.63;9.93;;;8.80;99.90;;;;;;4988046;28;20439;-80
2022/11/10 04:50:46;;;;;;;23.13;9.57;;;8.80;99.90;;;;;;4988974;28;20057;-80
2022/11/10 04:53:12;;;;;;;25.65;11.35;;;8.80;99.90;;;;;;4988466;28;20373;-80
2022/11/10 04:55:45;;;;;;;25.13;9.88;;;8.80;99.90;;;;;;4988177;28;20456;-80
2022/11/10 04:58:11;;;;;;;23.95;9.23;;;8.80;99.90;;;;;;4988479;28;20053;-81
2022/11/10 05:00:37;;;;;;;22.80;9.95;;;8.80;99.90;;;;;;4988814;28;20053;-81
2022/11/10 05:03:05;;;;;;;20.90;9.45;;;8.80;99.90;;;;;;4988263;28;20112;-81
2022/11/10 05:05:31;;;;;;;23.33;10.30;;;8.80;99.90;;;;;;4986813;28;20039;-81
2022/11/10 05:07:56;;;;;;;19.95;9.68;;;8.90;99.90;;;;;;4988398;28;20049;-80
2022/11/10 05:10:22;;;;;;;26.55;10.02;;;8.80;99.90;;;;;;4988907;28;20042;-81
2022/11/10 05:12:48;;;;;;;19.67;9.60;;;8.80;99.90;;;;;;4972373;28;20057;-81
2022/11/10 05:15:13;;;;;;;23.85;9.65;;;8.80;99.90;;;;;;4989324;28;20046;-81
2022/11/10 05:17:39;;;;;;;26.75;9.77;;;8.80;99.90;;;;;;4988767;28;20042;-81
2022/11/10 05:20:06;;;;;;;27.15;10.27;;;8.80;99.90;;;;;;4982309;28;20055;-80
2022/11/10 05:22:31;;;;;;;21.25;9.52;;;8.90;99.90;;;;;;4969408;28;20039;-81
2022/11/10 05:24:57;;;;;;;23.83;9.32;;;8.90;99.90;;;;;;4978494;28;20061;-81
2022/11/10 05:27:22;;;;;;;25.90;9.90;;;8.80;99.90;;;;;;4972013;28;20085;-80
2022/11/10 05:29:48;;;;;;;23.77;10.35;;;9.00;99.90;;;;;;4990067;28;20085;-80
2022/11/10 05:32:13;;;;;;;21.13;9.27;;;8.80;99.90;;;;;;4988326;28;20516;-81
2022/11/10 05:34:39;;;;;;;30.52;10.43;;;8.80;99.90;;;;;;4987833;28;20408;-80
2022/11/10 05:37:04;;;;;;;28.00;10.05;;;8.80;99.90;;;;;;4988189;28;20192;-81
2022/11/10 05:39:30;;;;;;;22.88;9.90;;;8.80;99.90;;;;;;4972083;28;20046;-81
2022/11/10 05:41:56;;;;;;;25.95;11.10;;;8.80;99.90;;;;;;4987759;28;20062;-81
2022/11/10 05:44:21;;;;;;;23.17;10.48;;;8.80;99.90;;;;;;4987933;28;20054;-80
2022/11/10 05:46:47;;;;;;;25.05;10.65;;;8.90;99.90;;;;;;4988602;28;20065;-81
2022/11/10 05:49:13;;;;;;;25.45;11.40;;;8.80;99.90;;;;;;4987706;28;20054;-81
2022/11/10 05:51:38;;;;;;;35.03;11.25;;;8.90;99.90;;;;;;4989444;28;20516;-81
2022/11/10 05:54:04;;;;;;;29.65;11.27;;;8.90;99.90;;;;;;4988322;28;20053;-81
2022/11/10 05:56:30;;;;;;;29.95;11.57;;;8.90;99.90;;;;;;4986639;28;20778;-81
2022/11/10 05:58:55;;;;;;;26.08;11.65;;;8.90;99.90;;;;;;4987801;28;20046;-81
2022/11/10 06:01:21;;;;;;;28.75;11.70;;;8.90;99.90;;;;;;4987972;28;20054;-81
2022/11/10 06:03:46;;;;;;;25.77;11.57;;;9.00;99.90;;;;;;4988582;28;20100;-81
2022/11/10 06:06:12;;;;;;;27.15;11.80;;;9.00;99.90;;;;;;4987273;28;20046;-81
2022/11/10 06:08:38;;;;;;;27.65;12.00;;;9.00;99.90;;;;;;4987175;28;20358;-81
2022/11/10 06:11:03;;;;;;;33.80;13.48;;;9.10;99.90;;;;;;4984943;28;20050;-81
2022/11/10 06:13:29;;;;;;;27.27;13.57;;;9.10;99.90;;;;;;4985329;28;20488;-81
2022/11/10 06:15:54;;;;;;;39.13;13.75;;;9.10;99.90;;;;;;4989979;28;20050;-81
2022/11/10 06:18:20;;;;;;;31.65;13.35;;;9.10;99.90;;;;;;4991514;28;20053;-81
2022/11/10 06:20:46;;;;;;;27.63;13.00;;;8.80;99.90;;;;;;4974505;28;20046;-81
2022/11/10 06:23:13;;;;;;;29.25;13.95;;;9.70;99.90;;;;;;4991798;28;20042;-81
2022/11/10 06:25:40;;;;;;;31.15;13.73;;;9.10;99.90;;;;;;4987449;28;20109;-81
2022/11/10 06:28:06;;;;;;;30.55;13.63;;;9.00;99.90;;;;;;4990114;28;20042;-81
2022/11/10 06:30:34;;;;;;;31.33;12.48;;;9.00;99.90;;;;;;4972270;28;20055;-81
2022/11/10 06:32:59;;;;;;;27.58;12.40;;;9.00;99.90;;;;;;4972593;28;20046;-81
2022/11/10 06:35:25;;;;;;;23.08;11.05;;;9.00;99.90;;;;;;4974861;28;20134;-81
2022/11/10 06:38:00;;;;;;;33.13;13.38;;;9.00;99.90;;;;;;4984217;28;20157;-81
2022/11/10 06:40:26;;;;;;;30.67;11.77;;;9.00;99.90;;;;;;4996855;28;20522;-81
2022/11/10 06:42:51;;;;;;;31.25;11.77;;;8.90;99.90;;;;;;4991426;28;20064;-81
2022/11/10 06:45:17;;;;;;;29.67;12.05;;;9.40;99.90;;;;;;4977338;28;20043;-81
2022/11/10 06:47:42;;;;;;;26.85;11.93;;;9.00;99.90;;;;;;4985405;28;20105;-81
2022/11/10 06:50:08;;;;;;;23.42;12.50;;;8.90;99.90;;;;;;4970866;28;20047;-81
2022/11/10 06:52:34;;;;;;;24.40;12.18;;;8.90;99.90;;;;;;4971378;28;20046;-81
2022/11/10 06:55:00;;;;;;;27.25;12.30;;;8.90;99.90;;;;;;4971127;28;20131;-82
2022/11/10 06:57:26;;;;;;;26.30;11.32;;;8.90;99.90;;;;;;4987756;28;20077;-82
2022/11/10 06:59:51;;;;;;;26.23;11.40;;;9.00;99.90;;;;;;4991282;28;20129;-81
2022/11/10 07:02:17;;;;;;;31.15;11.40;;;9.00;99.90;;;;;;4990961;28;20089;-82
2022/11/10 07:04:43;;;;;;;29.17;14.50;;;9.00;99.90;;;;;;4979717;28;20039;-81
2022/11/10 07:07:09;;;;;;;24.15;12.73;;;9.00;99.90;;;;;;4990172;28;20038;-81
2022/11/10 07:09:35;;;;;;;29.55;12.20;;;9.00;99.90;;;;;;4992120;28;20137;-81
2022/11/10 07:12:00;;;;;;;27.67;12.25;;;9.00;99.90;;;;;;4988544;28;20133;-81
2022/11/10 07:14:26;;;;;;;30.42;14.00;;;9.00;99.90;;;;;;4988878;28;20133;-77
2022/11/10 07:16:51;;;;;;;28.90;15.02;;;9.40;99.90;;;;;;4972797;28;20047;-79
2022/11/10 07:19:17;;;;;;;30.95;13.30;;;9.00;99.90;;;;;;4971476;28;20055;-79
2022/11/10 07:21:43;;;;;;;27.73;12.90;;;9.00;99.90;;;;;;4971806;28;20493;-79
2022/11/10 07:24:08;;;;;;;30.02;13.95;;;9.10;99.90;;;;;;4972885;28;20058;-79
2022/11/10 07:26:34;;;;;;;29.25;12.75;;;9.20;99.90;;;;;;4971135;28;20897;-79
2022/11/10 07:28:59;;;;;;;40.85;14.00;;;9.20;99.90;;;;;;4975282;28;20047;-79
2022/11/10 07:31:25;;;;;;;32.55;14.07;;;9.30;99.90;;;;;;4989267;28;20123;-79
2022/11/10 07:33:51;;;;;;;34.67;15.40;;;9.30;99.90;;;;;;4990275;28;20117;-79
2022/11/10 07:36:17;;;;;;;37.72;14.88;;;9.40;99.90;;;;;;4989694;28;20043;-79
2022/11/10 07:38:42;;;;;;;29.25;14.35;;;9.40;99.90;;;;;;4974457;28;20053;-79
2022/11/10 07:41:08;;;;;;;34.38;13.95;;;9.50;99.90;;;;;;4989500;28;20085;-79
2022/11/10 07:43:34;;;;;;;29.10;14.60;;;9.50;99.90;;;;;;4989524;28;20046;-79
2022/11/10 07:45:59;;;;;;;32.58;15.60;;;9.50;99.90;;;;;;4989468;28;20447;-79
2022/11/10 07:48:25;;;;;;;32.85;14.93;;;9.50;99.90;;;;;;4975290;28;20097;-79
2022/11/10 07:50:51;;;;;;;29.42;12.43;;;9.60;99.90;;;;;;4987654;28;20093;-79
2022/11/10 07:53:18;;;;;;;30.60;15.48;;;9.50;99.90;;;;;;4978526;28;20050;-79
2022/11/10 07:55:45;;;;;;;31.73;15.25;;;9.60;99.90;;;;;;4970162;28;20055;-79
2022/11/10 07:58:12;;;;;;;30.52;15.80;;;10.20;99.90;;;;;;4971044;28;20105;-79
2022/11/10 08:00:39;;;;;;;30.50;14.10;;;9.60;99.90;;;;;;4970622;28;20077;-79
2022/11/10 08:03:07;;;;;;;22.40;13.30;;;9.60;99.90;;;;;;4970323;28;20061;-79
2022/11/10 08:05:33;;;;;;;35.90;16.38;;;9.60;99.90;;;;;;4970674;28;20062;-79
2022/11/10 08:07:59;;;;;;;26.92;13.93;;;9.60;99.90;;;;;;4980259;28;20046;-78
2022/11/10 08:10:26;;;;;;;29.15;14.98;;;9.60;99.90;;;;;;4988876;28;20042;-79
2022/11/10 08:13:00;;;;;;;31.13;15.65;;;9.60;99.90;;;;;;4989844;28;20057;-79
2022/11/10 08:15:27;;;;;;;27.10;14.27;;;9.70;99.90;;;;;;4973595;28;20464;-78
2022/11/10 08:18:05;;;;;;;25.75;14.00;;;9.60;99.90;;;;;;4990002;28;20050;-79
2022/11/10 08:20:31;;;;;;;26.98;13.70;;;9.60;99.90;;;;;;4990926;28;20052;-78
2022/11/10 08:23:03;;;;;;;29.70;14.18;;;9.60;99.90;;;;;;4989660;28;20431;-79
2022/11/10 08:25:34;;;;;;;27.55;13.32;;;9.70;99.90;;;;;;4983862;28;20461;-79
2022/11/10 08:28:11;;;;;;;31.00;13.80;;;9.60;99.90;;;;;;4963677;28;20547;-79
2022/11/10 08:30:39;;;;;;;27.80;13.38;;;9.70;99.90;;;;;;4989480;28;20054;-79
2022/11/10 08:33:07;;;;;;;23.13;13.63;;;9.80;99.90;;;;;;4989235;28;20078;-79
2022/11/10 08:35:35;;;;;;;25.02;13.20;;;9.90;99.90;;;;;;4988640;28;20050;-79
2022/11/10 08:38:10;;;;;;;30.02;13.13;;;9.90;99.90;;;;;;4971456;28;20047;-79
2022/11/10 08:40:36;;;;;;;26.13;12.82;;;10.10;99.90;;;;;;4968766;28;20053;-79
2022/11/10 08:43:06;;;;;;;28.90;13.13;;;10.20;99.90;;;;;;4969322;28;20815;-79
2022/11/10 08:45:32;;;;;;;27.20;13.32;;;10.30;99.90;;;;;;4953533;28;20062;-79
2022/11/10 08:47:59;;;;;;;24.17;13.35;;;10.40;99.90;;;;;;4969351;28;20053;-79
2022/11/10 08:50:26;;;;;;;29.30;14.63;;;10.60;99.90;;;;;;4969521;28;20053;-79
2022/11/10 08:52:51;;;;;;;35.60;14.88;;;10.60;99.90;;;;;;4970391;28;20078;-79
2022/11/10 08:55:18;;;;;;;27.02;13.65;;;10.70;99.90;;;;;;4988747;28;20136;-79
2022/11/10 08:57:45;;;;;;;20.55;12.77;;;10.80;99.90;;;;;;4988651;28;20165;-79
2022/11/10 09:00:17;;;;;;;23.45;12.23;;;10.90;99.90;;;;;;5168551;27;21340;-79
2022/11/10 09:02:43;;;;;;;25.17;11.38;;;10.90;99.90;;;;;;5166313;27;20076;-79
2022/11/10 09:05:09;;;;;;;23.70;12.23;;;11.00;99.90;;;;;;5166655;27;20042;-78
2022/11/10 09:07:45;;;;;;;23.77;10.38;;;11.00;99.90;;;;;;5164504;27;20043;-79
2022/11/10 09:10:12;;;;;;;23.48;11.65;;;11.00;99.90;;;;;;5156732;27;20441;-79
2022/11/10 09:12:38;;;;;;;22.00;10.38;;;11.10;99.90;;;;;;5165477;27;20049;-79
2022/11/10 09:15:05;;;;;;;20.80;10.45;;;11.10;99.90;;;;;;5166663;27;20060;-79
2022/11/10 09:17:31;;;;;;;17.05;10.02;;;11.10;99.90;;;;;;5166655;27;20148;-79
2022/11/10 09:19:57;;;;;;;22.58;9.50;;;11.20;99.90;;;;;;5157381;27;20043;-79
2022/11/10 09:22:22;;;;;;;22.75;10.65;;;11.30;99.90;;;;;;5157862;27;20046;-79
2022/11/10 09:24:48;;;;;;;18.80;9.43;;;11.30;99.90;;;;;;5154503;27;20039;-79
2022/11/10 09:27:14;;;;;;;18.70;8.63;;;11.40;99.90;;;;;;5156988;27;20066;-80
2022/11/10 09:29:39;;;;;;;20.27;8.85;;;11.40;99.90;;;;;;5165191;27;20050;-79
2022/11/10 09:32:05;;;;;;;18.75;8.45;;;11.50;99.90;;;;;;5165044;27;20057;-79
2022/11/10 09:34:30;;;;;;;18.98;8.88;;;11.60;99.90;;;;;;5155880;27;20039;-79
2022/11/10 09:36:56;;;;;;;18.35;8.00;;;11.60;99.90;;;;;;5153212;27;20058;-79
2022/11/10 09:39:22;;;;;;;19.10;8.95;;;12.20;99.90;;;;;;5154255;27;20053;-79
2022/11/10 09:41:48;;;;;;;17.90;8.43;;;11.70;99.90;;;;;;5161213;27;20160;-79
2022/11/10 09:44:51;;;;;;;16.70;8.15;;;11.80;99.90;;;;;;5153007;27;20066;-79
2022/11/10 09:47:19;;;;;;;;;;;11.90;99.90;;;;;;5139916;27;20054;-79
2022/11/10 09:49:50;;;;;;;20.08;8.20;;;12.20;99.90;;;;;;5165829;27;20410;-79
2022/11/10 09:52:16;;;;;;;20.17;8.07;;;12.00;99.90;;;;;;5165241;27;20046;-79
2022/11/10 09:54:49;;;;;;;20.65;8.63;;;12.20;99.90;;;;;;5145713;27;20046;-79
2022/11/10 09:57:19;;;;;;;19.25;8.43;;;12.90;99.90;;;;;;5149699;27;20103;-78
2022/11/10 09:59:45;;;;;;;18.75;8.15;;;12.40;99.90;;;;;;5162087;27;20149;-79
2022/11/10 10:02:28;;;;;;;20.25;8.45;;;12.40;99.90;;;;;;5165693;27;20149;-79
2022/11/10 10:05:33;;;;;;;19.15;7.70;;;12.50;99.90;;;;;;5166309;27;20051;-79
2022/11/10 10:08:09;;;;;;;17.35;6.35;;;12.70;99.90;;;;;;5144872;27;20641;-79
2022/11/10 10:10:37;;;;;;;13.70;5.90;;;12.70;99.90;;;;;;5137856;27;20043;-79
2022/11/10 10:13:21;;;;;;;15.18;5.85;;;12.80;99.90;;;;;;5140270;27;20070;-80
2022/11/10 10:16:05;;;;;;;14.75;6.05;;;12.80;99.90;;;;;;5150093;27;20074;-79
2022/11/10 10:18:55;;;;;;;16.08;5.38;;;12.70;99.90;;;;;;5140364;27;20132;-81
2022/11/10 10:21:57;;;;;;;11.35;5.07;;;12.70;99.90;;;;;;5128388;27;20174;-81
2022/11/10 10:24:26;;;;;;;14.00;5.03;;;12.80;99.90;;;;;;5152067;27;20065;-81
2022/11/10 10:26:58;;;;;;;15.45;5.22;;;12.90;99.90;;;;;;5148184;27;20076;-81
2022/11/10 10:29:30;;;;;;;13.25;5.47;;;13.00;99.90;;;;;;5145157;27;20080;-82
2022/11/10 10:31:57;;;;;;;16.23;6.05;;;13.10;99.90;;;;;;5150973;27;20047;-82
2022/11/10 10:34:27;;;;;;;15.48;5.28;;;13.10;99.90;;;;;;5151758;27;20404;-81
2022/11/10 10:36:53;;;;;;;16.77;5.47;;;13.20;99.90;;;;;;5151319;27;20046;-82
2022/11/10 10:39:41;;;;;;;12.18;5.22;;;13.20;99.90;;;;;;5153345;27;20046;-81
2022/11/10 10:42:27;;;;;;;15.98;4.82;;;13.10;99.90;;;;;;5151111;27;20505;-81
2022/11/10 10:45:14;;;;;;;15.48;4.95;;;13.10;99.90;;;;;;5148343;27;20741;-81
2022/11/10 10:47:40;;;;;;;13.88;4.78;;;13.20;99.90;;;;;;5132952;27;20133;-81
2022/11/10 10:50:33;;;;;;;20.52;5.30;;;13.20;99.90;;;;;;5150626;27;20073;-81
2022/11/10 10:53:10;;;;;;;11.43;4.47;;;13.30;99.90;;;;;;5134176;27;20377;-80
2022/11/10 10:55:37;;;;;;;15.60;4.95;;;13.40;99.90;;;;;;5151184;27;20070;-80
2022/11/10 10:58:19;;;;;;;15.45;4.43;;;13.40;99.90;;;;;;5148530;27;20041;-81
2022/11/10 11:00:48;;;;;;;13.35;3.72;;;13.40;99.90;;;;;;5131958;27;20395;-80
2022/11/10 11:03:40;;;;;;;16.33;4.40;;;13.40;99.90;;;;;;5146628;27;20035;-80
2022/11/10 11:06:15;;;;;;;14.52;5.05;;;13.40;99.90;;;;;;5129944;27;20051;-80
2022/11/10 11:08:57;;;;;;;14.88;3.88;;;13.50;99.90;;;;;;5130167;27;20047;-81
2022/11/10 11:11:26;;;;;;;11.97;3.37;;;13.50;99.90;;;;;;5129987;27;20059;-80
2022/11/10 11:13:52;;;;;;;12.10;3.65;;;13.60;99.90;;;;;;5138013;27;20070;-79
2022/11/10 11:16:18;;;;;;;17.25;3.85;;;13.60;99.90;;;;;;5129987;27;20039;-80
2022/11/10 11:18:46;;;;;;;11.75;3.72;;;13.70;99.90;;;;;;5127330;27;20042;-80
2022/11/10 11:21:32;;;;;;;9.57;3.85;;;14.40;99.90;;;;;;5133437;27;20150;-80
2022/11/10 11:24:25;;;;;;;16.02;3.92;;;13.80;99.90;;;;;;5135624;27;20051;-79
2022/11/10 11:26:50;;;;;;;;;;;13.90;99.90;;;;;;5138421;27;20047;-80
2022/11/10 11:29:21;;;;;;;11.63;3.80;;;13.90;99.90;;;;;;5111612;27;19930;-80
2022/11/10 11:32:15;;;;;;;11.13;3.70;;;13.90;99.90;;;;;;5144159;27;20492;-79
2022/11/10 11:35:07;;;;;;;14.02;3.85;;;13.90;99.90;;;;;;5143377;27;20542;-79
2022/11/10 11:38:03;;;;;;;18.73;4.43;;;13.90;99.90;;;;;;5139426;27;20043;-79
2022/11/10 11:40:50;;;;;;;10.48;3.10;;;13.90;99.90;;;;;;5138191;27;20299;-79
2022/11/10 11:43:54;;;;;;;11.73;4.38;;;13.90;99.90;;;;;;5129285;27;20055;-79
2022/11/10 11:46:43;;;;;;;12.60;3.50;;;13.90;99.90;;;;;;5145145;27;20054;-79
2022/11/10 11:49:42;;;;;;;11.27;3.83;;;13.90;99.90;;;;;;5134850;27;20043;-80
2022/11/10 11:52:46;;;;;;;10.73;3.70;;;14.00;99.90;;;;;;5147496;27;20062;-80
2022/11/10 11:55:33;;;;;;;16.33;3.13;;;14.00;99.90;;;;;;5148264;27;20129;-80
2022/11/10 11:58:21;;;;;;;6.85;3.03;;;14.10;99.90;;;;;;5138631;27;20149;-80
2022/11/10 12:01:24;;;;;;;12.02;3.30;;;14.10;99.90;;;;;;5148974;27;20050;-80
2022/11/10 12:04:20;;;;;;;14.35;2.90;;;14.10;99.90;;;;;;5143747;27;20050;-80
2022/11/10 12:07:02;;;;;;;14.68;3.40;;;14.10;99.90;;;;;;5147217;27;20381;-80
2022/11/10 12:09:50;;;;;;;13.48;2.95;;;14.20;99.90;;;;;;5150430;27;20043;-80
2022/11/10 12:12:28;;;;;;;12.55;2.75;;;14.20;99.90;;;;;;5142532;27;20050;-79
2022/11/10 12:15:13;;;;;;;7.47;2.20;;;14.20;99.90;;;;;;5122848;27;20084;-81
2022/11/10 12:18:07;;;;;;;10.40;2.72;;;14.20;99.90;;;;;;5137661;27;20087;-81
2022/11/10 12:20:50;;;;;;;8.32;2.45;;;14.20;99.90;;;;;;5111330;27;20043;-80
2022/11/10 12:23:35;;;;;;;13.00;2.67;;;14.20;99.90;;;;;;5138722;27;20138;-80
2022/11/10 12:26:32;;;;;;;9.45;2.80;;;14.20;99.90;;;;;;5147809;27;20492;-80
2022/11/10 12:29:14;;;;;;;13.07;2.70;;;14.10;99.90;;;;;;5148762;27;20139;-80
2022/11/10 12:31:43;;;;;;;11.77;3.47;;;14.10;99.90;;;;;;5145962;27;20404;-80
2022/11/10 12:34:28;;;;;;;12.13;2.72;;;14.10;99.90;;;;;;5162731;27;20164;-81
2022/11/10 12:36:57;;;;;;;10.63;2.58;;;14.10;99.90;;;;;;5130618;27;20171;-80
2022/11/10 12:39:36;;;;;;;9.35;2.30;;;14.10;99.90;;;;;;5148180;27;20050;-80
2022/11/10 12:42:03;;;;;;;13.40;2.78;;;14.00;99.90;;;;;;5145456;27;20074;-80
2022/11/10 12:44:53;;;;;;;14.02;3.17;;;14.00;99.90;;;;;;5120580;27;20043;-80
2022/11/10 12:47:21;;;;;;;12.65;2.83;;;14.00;99.90;;;;;;5110452;27;20094;-78
2022/11/10 12:50:22;;;;;;;11.93;2.42;;;14.00;99.90;;;;;;5110019;27;20047;-78
2022/11/10 12:53:04;;;;;;;9.35;3.28;;;14.00;99.90;;;;;;5136173;27;20103;-79
2022/11/10 12:55:38;;;;;;;12.38;2.35;;;14.00;99.90;;;;;;5142943;27;20047;-79
2022/11/10 12:58:12;;;;;;;17.30;3.03;;;14.00;99.90;;;;;;5146330;27;20063;-79
2022/11/10 13:01:02;;;;;;;9.20;2.17;;;14.00;99.90;;;;;;5147716;27;20563;-79
2022/11/10 13:03:36;;;;;;;10.63;2.22;;;14.10;99.90;;;;;;5148265;27;20050;-79
2022/11/10 13:06:04;;;;;;;11.27;3.05;;;14.10;99.90;;;;;;5147943;27;20438;-80
2022/11/10 13:08:45;;;;;;;12.60;3.20;;;14.10;99.90;;;;;;5140169;27;20126;-79
2022/11/10 13:11:11;;;;;;;13.57;3.03;;;14.20;99.90;;;;;;5126598;27;20435;-79
2022/11/10 13:13:57;;;;;;;9.10;2.65;;;14.10;99.90;;;;;;5143682;27;20043;-79